createdAt,value
2019-03-08T00:01:01.292Z,6.74
2019-03-08T00:03:27.987Z,6.74
2019-03-08T00:05:54.693Z,6.73
2019-03-08T00:08:21.295Z,6.72
2019-03-08T00:10:47.994Z,6.73
2019-03-08T00:13:14.707Z,6.74
2019-03-08T00:15:41.700Z,6.74
2019-03-08T00:18:08.297Z,6.74
2019-03-08T00:20:34.892Z,6.73
2019-03-08T00:23:01.598Z,6.72
2019-03-08T00:25:28.297Z,6.70
2019-03-08T00:27:54.891Z,6.69
2019-03-08T00:30:21.577Z,6.69
2019-03-08T00:32:48.303Z,6.69
2019-03-08T00:35:15.000Z,6.68
2019-03-08T00:37:41.616Z,6.68
2019-03-08T00:40:13.081Z,6.70
2019-03-08T00:42:39.791Z,6.71
2019-03-08T00:45:06.704Z,6.69
2019-03-08T00:47:33.817Z,6.68
2019-03-08T00:50:00.412Z,6.64
2019-03-08T00:52:27.107Z,6.61
2019-03-08T00:54:53.705Z,6.58
2019-03-08T00:57:20.384Z,6.55
2019-03-08T00:59:47.076Z,6.52
2019-03-08T01:02:13.728Z,6.45
2019-03-08T01:04:40.691Z,6.37
2019-03-08T01:07:07.416Z,6.32
2019-03-08T01:09:34.116Z,6.27
2019-03-08T01:12:00.809Z,6.20
2019-03-08T01:14:27.518Z,6.14
2019-03-08T01:16:54.269Z,6.08
2019-03-08T01:19:20.960Z,6.04
2019-03-08T01:21:47.644Z,6.03
2019-03-08T01:24:14.332Z,6.00
2019-03-08T01:26:41.034Z,5.98
2019-03-08T01:29:07.636Z,5.97
2019-03-08T01:31:34.316Z,5.96
2019-03-08T01:34:00.932Z,5.94
2019-03-08T01:36:27.650Z,5.93
2019-03-08T01:38:54.346Z,5.93
2019-03-08T01:41:20.971Z,5.92
2019-03-08T01:43:47.652Z,5.92
2019-03-08T01:46:14.335Z,5.89
2019-03-08T01:48:41.012Z,5.88
2019-03-08T01:51:07.722Z,5.86
2019-03-08T01:53:34.335Z,5.84
2019-03-08T01:56:01.045Z,5.84
2019-03-08T01:58:27.723Z,5.86
2019-03-08T02:00:54.436Z,5.86
2019-03-08T02:03:21.122Z,5.86
2019-03-08T02:05:47.894Z,5.86
2019-03-08T02:08:14.478Z,5.86
2019-03-08T02:10:41.173Z,5.85
2019-03-08T02:13:07.843Z,5.85
2019-03-08T02:15:34.539Z,5.85
2019-03-08T02:18:01.223Z,5.85
2019-03-08T02:20:27.823Z,5.85
2019-03-08T02:22:54.527Z,5.86
2019-03-08T02:25:21.272Z,5.88
2019-03-08T02:27:47.961Z,5.90
2019-03-08T02:30:15.032Z,5.89
2019-03-08T02:32:41.910Z,5.88
2019-03-08T02:35:08.635Z,5.92
2019-03-08T02:37:35.351Z,5.97
2019-03-08T02:40:02.039Z,5.99
2019-03-08T02:42:28.635Z,5.99
2019-03-08T02:44:55.339Z,5.97
2019-03-08T02:47:21.961Z,5.96
2019-03-08T02:49:48.864Z,5.95
2019-03-08T02:52:15.545Z,5.92
2019-03-08T02:54:42.159Z,5.88
2019-03-08T02:57:08.868Z,5.84
2019-03-08T02:59:35.579Z,5.81
2019-03-08T03:02:02.272Z,5.80
2019-03-08T03:04:28.873Z,5.76
2019-03-08T03:06:55.806Z,5.74
2019-03-08T03:09:22.536Z,5.71
2019-03-08T03:11:49.238Z,5.69
2019-03-08T03:14:15.928Z,5.71
2019-03-08T03:16:42.543Z,5.68
2019-03-08T03:19:09.224Z,5.67
2019-03-08T03:21:35.928Z,5.68
2019-03-08T03:24:02.904Z,5.68
2019-03-08T03:26:29.592Z,5.68
2019-03-08T03:28:56.302Z,5.68
2019-03-08T03:31:22.992Z,5.65
2019-03-08T03:33:49.700Z,5.60
2019-03-08T03:36:16.392Z,5.58
2019-03-08T03:38:43.100Z,5.57
2019-03-08T03:41:10.099Z,5.56
2019-03-08T03:43:36.797Z,5.55
2019-03-08T03:46:03.498Z,5.53
2019-03-08T03:48:30.118Z,5.53
2019-03-08T03:50:56.837Z,5.51
2019-03-08T03:53:23.538Z,5.47
2019-03-08T03:55:50.255Z,5.46
2019-03-08T03:58:16.924Z,5.45
2019-03-08T04:00:43.544Z,5.43
2019-03-08T04:03:10.146Z,5.43
2019-03-08T04:05:36.929Z,5.42
2019-03-08T04:08:03.616Z,5.42
2019-03-08T04:10:30.199Z,5.42
2019-03-08T04:12:56.842Z,5.37
2019-03-08T04:15:23.535Z,5.34
2019-03-08T04:17:50.128Z,5.35
2019-03-08T04:20:16.762Z,5.35
2019-03-08T04:22:43.467Z,5.35
2019-03-08T04:25:14.010Z,5.35
2019-03-08T04:27:41.780Z,5.34
2019-03-08T04:30:12.443Z,5.33
2019-03-08T04:32:39.233Z,5.29
2019-03-08T04:35:05.951Z,5.28
2019-03-08T04:37:32.638Z,5.23
2019-03-08T04:39:59.355Z,5.21
2019-03-08T04:42:26.046Z,5.16
2019-03-08T04:44:52.741Z,5.13
2019-03-08T04:47:19.455Z,5.11
2019-03-08T04:49:46.339Z,5.09
2019-03-08T04:52:12.973Z,5.07
2019-03-08T04:54:39.657Z,5.05
2019-03-08T04:57:06.255Z,5.03
2019-03-08T04:59:32.951Z,5.00
2019-03-08T05:01:59.651Z,4.99
2019-03-08T05:04:26.365Z,4.97
2019-03-08T05:06:53.285Z,4.96
2019-03-08T05:09:19.971Z,4.96
2019-03-08T05:11:46.674Z,4.96
2019-03-08T05:14:13.367Z,4.94
2019-03-08T05:16:39.989Z,4.92
2019-03-08T05:19:06.606Z,4.92
2019-03-08T05:21:33.296Z,4.92
2019-03-08T05:23:59.994Z,4.87
2019-03-08T05:26:37.094Z,4.85
2019-03-08T05:29:03.831Z,4.82
2019-03-08T05:31:30.532Z,4.77
2019-03-08T05:33:57.295Z,4.73
2019-03-08T05:36:24.005Z,4.72
2019-03-08T05:38:50.722Z,4.67
2019-03-08T05:41:17.422Z,4.64
2019-03-08T05:43:44.130Z,4.61
2019-03-08T05:46:10.765Z,4.58
2019-03-08T05:48:37.458Z,4.55
2019-03-08T05:51:04.158Z,4.53
2019-03-08T05:53:30.886Z,4.49
2019-03-08T05:55:57.594Z,4.47
2019-03-08T05:58:32.358Z,4.48
2019-03-08T06:00:59.106Z,4.51
2019-03-08T06:03:25.766Z,4.52
2019-03-08T06:05:52.492Z,4.53
2019-03-08T06:08:19.193Z,4.53
2019-03-08T06:10:45.899Z,4.56
2019-03-08T06:13:12.595Z,4.62
2019-03-08T06:15:39.294Z,4.70
2019-03-08T06:18:06.018Z,4.80
2019-03-08T06:20:32.706Z,4.95
2019-03-08T06:22:59.419Z,5.28
2019-03-08T06:25:26.134Z,5.70
2019-03-08T06:27:52.746Z,6.05
2019-03-08T06:30:19.451Z,6.38
2019-03-08T06:32:46.164Z,6.51
2019-03-08T06:35:12.892Z,6.76
2019-03-08T06:37:39.593Z,6.83
2019-03-08T06:40:17.927Z,6.85
2019-03-08T06:42:44.599Z,6.88
2019-03-08T06:45:11.921Z,7.16
2019-03-08T06:47:38.605Z,7.71
2019-03-08T06:50:05.929Z,8.00
2019-03-08T06:52:32.656Z,8.11
2019-03-08T06:54:59.371Z,8.24
2019-03-08T06:57:26.059Z,8.10
2019-03-08T07:00:12.133Z,7.84
2019-03-08T07:02:39.035Z,7.68
2019-03-08T07:05:05.773Z,7.61
2019-03-08T07:07:32.514Z,7.58
2019-03-08T07:09:59.213Z,7.48
2019-03-08T07:12:25.926Z,7.44
2019-03-08T07:14:52.632Z,7.46
2019-03-08T07:17:20.560Z,7.50
2019-03-08T07:20:12.243Z,7.52
2019-03-08T07:23:04.220Z,7.63
2019-03-08T07:26:05.538Z,7.69
2019-03-08T07:28:57.610Z,7.76
2019-03-08T07:31:33.366Z,7.70
2019-03-08T07:34:18.187Z,7.71
2019-03-08T07:37:04.403Z,7.76
2019-03-08T07:39:56.983Z,7.82
2019-03-08T07:42:49.444Z,7.86
2019-03-08T07:45:41.912Z,7.93
2019-03-08T07:48:13.722Z,7.96
2019-03-08T07:50:49.915Z,7.97
2019-03-08T07:53:24.914Z,7.98
2019-03-08T07:55:57.628Z,8.00
2019-03-08T07:58:42.682Z,8.07
2019-03-08T08:01:17.092Z,8.19
2019-03-08T08:03:52.931Z,8.33
2019-03-08T08:06:34.224Z,8.49
2019-03-08T08:09:20.437Z,8.69
2019-03-08T08:12:09.669Z,8.85
2019-03-08T08:14:53.238Z,8.95
2019-03-08T08:17:35.489Z,8.97
2019-03-08T08:20:21.992Z,9.02
2019-03-08T08:23:03.456Z,9.09
2019-03-08T08:25:53.820Z,9.20
2019-03-08T08:28:38.900Z,9.32
2019-03-08T08:31:28.153Z,9.45
2019-03-08T08:34:14.397Z,9.56
2019-03-08T08:36:59.572Z,9.57
2019-03-08T08:39:57.935Z,9.60
2019-03-08T08:42:53.469Z,9.62
2019-03-08T08:45:55.054Z,9.75
2019-03-08T08:48:33.706Z,9.96
2019-03-08T08:51:38.145Z,10.06
2019-03-08T08:54:12.952Z,10.10
2019-03-08T08:57:08.445Z,10.13
2019-03-08T08:59:42.293Z,10.13
2019-03-08T09:02:27.501Z,10.12
2019-03-08T09:05:02.381Z,10.08
2019-03-08T09:07:54.410Z,10.03
2019-03-08T09:10:34.003Z,10.00
2019-03-08T09:13:20.229Z,9.92
2019-03-08T09:16:05.325Z,9.99
2019-03-08T09:18:57.800Z,10.02
2019-03-08T09:21:28.203Z,10.05
2019-03-08T09:24:01.387Z,10.13
2019-03-08T09:26:46.280Z,10.24
2019-03-08T09:29:41.160Z,10.32
2019-03-08T09:32:29.665Z,10.46
2019-03-08T09:35:21.959Z,10.58
2019-03-08T09:38:14.229Z,10.61
2019-03-08T09:40:59.577Z,10.70
2019-03-08T09:43:34.690Z,10.64
2019-03-08T09:46:23.457Z,10.63
2019-03-08T09:49:21.338Z,10.64
2019-03-08T09:52:17.021Z,10.58
2019-03-08T09:54:51.979Z,10.57
2019-03-08T09:57:43.094Z,10.81
2019-03-08T10:00:30.742Z,11.02
2019-03-08T10:03:15.617Z,11.15
2019-03-08T10:06:00.657Z,11.27
2019-03-08T10:08:52.401Z,11.38
2019-03-08T10:11:23.304Z,11.32
2019-03-08T10:14:09.423Z,11.27
2019-03-08T10:16:41.575Z,11.21
2019-03-08T10:19:21.734Z,11.14
2019-03-08T10:22:06.778Z,11.12
2019-03-08T10:24:56.027Z,11.12
2019-03-08T10:27:37.566Z,10.98
2019-03-08T10:30:09.346Z,11.02
2019-03-08T10:33:04.394Z,11.20
2019-03-08T10:35:43.272Z,11.41
2019-03-08T10:38:24.634Z,11.62
2019-03-08T10:41:05.400Z,11.80
2019-03-08T10:43:51.638Z,11.81
2019-03-08T10:46:28.579Z,11.82
2019-03-08T10:49:04.119Z,11.42
2019-03-08T10:51:36.784Z,11.42
2019-03-08T10:54:41.469Z,11.67
2019-03-08T10:57:33.414Z,11.64
2019-03-08T11:00:16.418Z,11.38
2019-03-08T11:03:03.197Z,11.27
2019-03-08T11:06:01.767Z,11.28
2019-03-08T11:08:46.621Z,11.13
2019-03-08T11:11:22.820Z,10.73
2019-03-08T11:14:09.032Z,10.58
2019-03-08T11:16:58.312Z,10.38
2019-03-08T11:19:39.976Z,10.41
2019-03-08T11:22:15.215Z,10.36
2019-03-08T11:25:08.683Z,10.36
2019-03-08T11:28:20.952Z,10.41
2019-03-08T11:31:01.463Z,10.47
2019-03-08T11:33:53.535Z,10.59
2019-03-08T11:36:39.883Z,10.59
2019-03-08T11:39:22.191Z,10.50
2019-03-08T11:42:00.592Z,10.43
2019-03-08T11:44:35.791Z,10.39
2019-03-08T11:47:18.181Z,10.47
2019-03-08T11:50:10.225Z,10.54
2019-03-08T11:52:44.501Z,10.59
2019-03-08T11:55:35.831Z,10.61
2019-03-08T11:58:08.817Z,10.57
2019-03-08T12:00:41.305Z,10.57
2019-03-08T12:03:27.724Z,10.50
2019-03-08T12:06:16.722Z,10.44
2019-03-08T12:09:05.733Z,10.33
2019-03-08T12:11:57.726Z,10.13
2019-03-08T12:14:39.028Z,10.11
2019-03-08T12:17:25.235Z,10.16
2019-03-08T12:20:11.469Z,10.28
2019-03-08T12:23:09.863Z,10.54
2019-03-08T12:26:11.529Z,10.61
2019-03-08T12:29:00.651Z,10.50
2019-03-08T12:31:46.855Z,10.48
2019-03-08T12:34:30.555Z,10.50
2019-03-08T12:37:16.793Z,10.55
2019-03-08T12:39:57.377Z,10.53
2019-03-08T12:43:08.072Z,10.57
2019-03-08T12:45:45.020Z,10.65
2019-03-08T12:48:43.419Z,10.68
2019-03-08T12:51:41.661Z,10.87
2019-03-08T12:54:22.366Z,11.14
2019-03-08T12:57:07.284Z,11.39
2019-03-08T12:59:54.048Z,11.90
2019-03-08T13:02:25.698Z,12.28
2019-03-08T13:05:26.874Z,12.12
2019-03-08T13:08:18.846Z,12.16
2019-03-08T13:10:45.607Z,12.08
2019-03-08T13:13:13.109Z,12.09
2019-03-08T13:15:39.804Z,12.05
2019-03-08T13:18:06.502Z,12.00
2019-03-08T13:20:33.216Z,11.82
2019-03-08T13:23:00.117Z,11.75
2019-03-08T13:25:28.459Z,11.73
2019-03-08T13:27:55.250Z,11.61
2019-03-08T13:30:21.962Z,11.47
2019-03-08T13:32:48.686Z,11.24
2019-03-08T13:35:15.388Z,11.02
2019-03-08T13:37:42.121Z,10.91
2019-03-08T13:40:12.064Z,10.62
2019-03-08T13:42:38.742Z,10.45
2019-03-08T13:45:06.751Z,10.25
2019-03-08T13:47:33.443Z,10.09
2019-03-08T13:50:00.063Z,9.95
2019-03-08T13:52:26.768Z,9.92
2019-03-08T13:54:53.419Z,9.95
2019-03-08T13:57:20.227Z,9.93
2019-03-08T13:59:46.941Z,9.92
2019-03-08T14:02:13.645Z,9.96
2019-03-08T14:04:40.351Z,9.89
2019-03-08T14:07:07.139Z,9.76
2019-03-08T14:09:33.836Z,9.60
2019-03-08T14:12:00.544Z,9.50
2019-03-08T14:14:27.448Z,9.49
2019-03-08T14:16:54.175Z,9.54
2019-03-08T14:19:20.875Z,9.67
2019-03-08T14:21:47.762Z,9.77
2019-03-08T14:24:14.386Z,9.68
2019-03-08T14:26:41.082Z,9.59
2019-03-08T14:29:07.804Z,9.44
2019-03-08T14:31:53.941Z,9.36
2019-03-08T14:34:20.635Z,9.33
2019-03-08T14:36:47.341Z,9.28
2019-03-08T14:39:14.045Z,9.34
2019-03-08T14:41:45.235Z,9.35
2019-03-08T14:44:37.042Z,9.29
2019-03-08T14:47:14.638Z,9.26
2019-03-08T14:49:41.327Z,9.34
2019-03-08T14:52:08.039Z,9.44
2019-03-08T14:54:34.848Z,9.64
2019-03-08T14:57:01.470Z,9.79
2019-03-08T14:59:28.222Z,9.85
2019-03-08T15:01:54.854Z,9.99
2019-03-08T15:04:21.600Z,10.60
2019-03-08T15:06:48.352Z,11.26
2019-03-08T15:09:15.098Z,11.25
2019-03-08T15:11:41.725Z,11.13
2019-03-08T15:14:08.425Z,10.76
2019-03-08T15:16:35.346Z,10.43
2019-03-08T15:19:04.873Z,10.08
2019-03-08T15:21:33.129Z,9.64
2019-03-08T15:24:00.194Z,9.26
2019-03-08T15:26:26.925Z,9.04
2019-03-08T15:28:53.666Z,8.80
2019-03-08T15:31:20.380Z,8.54
2019-03-08T15:33:47.106Z,8.33
2019-03-08T15:36:13.821Z,8.17
2019-03-08T15:38:40.880Z,8.09
2019-03-08T15:41:07.578Z,7.97
2019-03-08T15:43:34.299Z,7.89
2019-03-08T15:46:00.947Z,7.82
2019-03-08T15:48:27.660Z,7.78
2019-03-08T15:50:54.266Z,7.74
2019-03-08T15:53:20.972Z,7.73
2019-03-08T15:55:52.878Z,7.80
2019-03-08T15:58:16.219Z,7.85
2019-03-08T16:00:42.819Z,7.89
2019-03-08T16:03:09.526Z,7.92
2019-03-08T16:05:36.157Z,8.15
2019-03-08T16:08:03.949Z,8.26
2019-03-08T16:10:30.795Z,8.31
2019-03-08T16:12:57.525Z,8.40
2019-03-08T16:15:24.236Z,8.36
2019-03-08T16:17:50.944Z,8.23
2019-03-08T16:20:17.901Z,8.12
2019-03-08T16:22:44.602Z,7.99
2019-03-08T16:25:11.847Z,7.87
2019-03-08T16:27:38.543Z,7.76
2019-03-08T16:30:09.723Z,7.64
2019-03-08T16:32:42.273Z,7.58
2019-03-08T16:35:08.987Z,7.49
2019-03-08T16:37:54.283Z,7.42
2019-03-08T16:40:43.285Z,7.35
2019-03-08T16:43:28.641Z,7.26
2019-03-08T16:46:04.805Z,7.18
2019-03-08T16:48:46.204Z,7.07
2019-03-08T16:51:41.711Z,6.96
2019-03-08T16:54:26.545Z,6.87
2019-03-08T16:57:03.751Z,6.81
2019-03-08T16:59:37.342Z,6.70
2019-03-08T17:02:12.496Z,6.62
2019-03-08T17:04:45.905Z,6.53
2019-03-08T17:07:25.124Z,6.46
2019-03-08T17:10:03.515Z,6.40
2019-03-08T17:13:04.838Z,6.35
2019-03-08T17:15:49.872Z,6.29
2019-03-08T17:18:41.974Z,6.23
2019-03-08T17:21:33.730Z,6.15
2019-03-08T17:24:20.168Z,6.08
2019-03-08T17:26:51.251Z,6.02
2019-03-08T17:29:55.667Z,5.98
2019-03-08T17:32:47.912Z,5.95
2019-03-08T17:35:36.906Z,5.92
2019-03-08T17:38:25.936Z,5.89
2019-03-08T17:41:22.594Z,5.82
2019-03-08T17:44:07.598Z,5.79
2019-03-08T17:47:08.678Z,5.74
2019-03-08T17:50:10.164Z,5.72
2019-03-08T17:53:08.339Z,5.71
2019-03-08T17:55:57.277Z,5.70
2019-03-08T17:58:47.973Z,5.71
2019-03-08T18:01:28.537Z,5.69
2019-03-08T18:04:21.021Z,5.69
2019-03-08T18:07:05.944Z,5.70
2019-03-08T18:09:57.086Z,5.67
2019-03-08T18:12:46.384Z,5.66
2019-03-08T18:15:27.138Z,5.60
2019-03-08T18:18:10.824Z,5.56
2019-03-08T18:21:02.958Z,5.54
2019-03-08T18:23:58.133Z,5.50
2019-03-08T18:26:35.588Z,5.48
2019-03-08T18:29:37.227Z,5.45
2019-03-08T18:32:17.806Z,5.46
2019-03-08T18:35:02.959Z,5.44
2019-03-08T18:37:51.673Z,5.43
2019-03-08T18:40:35.627Z,5.40
2019-03-08T18:43:21.802Z,5.38
2019-03-08T18:46:08.056Z,5.35
2019-03-08T18:48:54.293Z,5.34
2019-03-08T18:51:40.475Z,5.31
2019-03-08T18:54:26.659Z,5.27
2019-03-08T18:57:13.034Z,5.21
2019-03-08T18:59:59.243Z,5.15
2019-03-08T19:02:45.448Z,5.07
2019-03-08T19:05:31.671Z,4.97
2019-03-08T19:08:17.855Z,4.92
2019-03-08T19:11:04.042Z,4.87
2019-03-08T19:13:50.230Z,4.84
2019-03-08T19:16:36.467Z,4.79
2019-03-08T19:19:22.669Z,4.75
2019-03-08T19:21:55.577Z,4.72
2019-03-08T19:25:01.281Z,4.70
2019-03-08T19:27:47.489Z,4.68
2019-03-08T19:30:34.181Z,4.69
2019-03-08T19:33:20.575Z,4.70
2019-03-08T19:36:06.805Z,4.73
2019-03-08T19:38:53.008Z,4.72
2019-03-08T19:41:39.204Z,4.72
2019-03-08T19:44:25.391Z,4.72
2019-03-08T19:47:11.584Z,4.71
2019-03-08T19:49:49.241Z,4.70
2019-03-08T19:52:43.581Z,4.68
2019-03-08T19:55:49.278Z,4.66
2019-03-08T19:58:35.480Z,4.63
2019-03-08T20:01:21.680Z,4.62
2019-03-08T20:04:07.878Z,4.59
2019-03-08T20:06:54.079Z,4.55
2019-03-08T20:09:40.734Z,4.42
2019-03-08T20:12:26.911Z,4.33
2019-03-08T20:15:13.316Z,4.24
2019-03-08T20:17:46.129Z,4.14
2019-03-08T20:20:32.447Z,4.06
2019-03-08T20:23:18.705Z,4.00
2019-03-08T20:26:04.906Z,3.95
2019-03-08T20:28:51.372Z,3.92
2019-03-08T20:31:37.574Z,3.88
2019-03-08T20:34:19.876Z,3.86
2019-03-08T20:37:06.082Z,3.85
2019-03-08T20:39:52.315Z,3.82
2019-03-08T20:42:38.502Z,3.80
2019-03-08T20:45:24.859Z,3.78
2019-03-08T20:47:51.627Z,3.75
2019-03-08T20:50:18.343Z,3.72
2019-03-08T20:52:45.092Z,3.81
2019-03-08T20:55:31.273Z,3.94
2019-03-08T20:57:58.198Z,4.04
2019-03-08T21:00:24.939Z,4.12
2019-03-08T21:02:51.661Z,4.08
2019-03-08T21:05:18.397Z,4.01
2019-03-08T21:07:45.105Z,3.92
2019-03-08T21:10:31.269Z,3.87
2019-03-08T21:12:58.017Z,3.80
2019-03-08T21:15:25.686Z,3.74
2019-03-08T21:17:59.530Z,3.69
2019-03-08T21:20:26.247Z,3.65
2019-03-08T21:22:53.004Z,3.63
2019-03-08T21:25:19.713Z,3.62
2019-03-08T21:27:46.420Z,3.58
2019-03-08T21:30:14.090Z,3.53
2019-03-08T21:32:40.833Z,3.48
2019-03-08T21:35:07.582Z,3.42
2019-03-08T21:37:34.308Z,3.38
2019-03-08T21:40:01.058Z,3.36
2019-03-08T21:42:27.800Z,3.33
2019-03-08T21:44:54.594Z,3.31
2019-03-08T21:47:21.230Z,3.30
2019-03-08T21:49:47.928Z,3.30
2019-03-08T21:52:14.709Z,3.29
2019-03-08T21:54:52.875Z,3.29
2019-03-08T21:57:19.511Z,3.28
2019-03-08T21:59:46.146Z,3.28
2019-03-08T22:07:51.611Z,3.27
2019-03-08T22:13:05.733Z,3.32
2019-03-08T22:15:32.426Z,3.34
2019-03-08T22:17:59.052Z,3.35
2019-03-08T22:20:25.787Z,3.35
2019-03-08T22:22:52.524Z,3.34
2019-03-08T22:25:27.535Z,3.35
2019-03-08T22:27:54.255Z,3.37
2019-03-08T22:30:20.999Z,3.38
2019-03-08T22:32:47.740Z,3.38
2019-03-08T22:35:14.440Z,3.39
2019-03-08T22:37:41.161Z,3.39
2019-03-08T22:40:16.015Z,3.36
2019-03-08T22:42:42.734Z,3.35
2019-03-08T22:45:09.512Z,3.31
2019-03-08T22:47:36.213Z,3.29
2019-03-08T22:50:02.974Z,3.26
2019-03-08T22:52:29.655Z,3.24
2019-03-08T22:54:56.307Z,3.24
2019-03-08T22:57:23.037Z,3.22
2019-03-08T22:59:49.764Z,3.21
2019-03-08T23:02:16.490Z,3.20
2019-03-08T23:04:43.217Z,3.18
2019-03-08T23:07:09.924Z,3.15
2019-03-08T23:09:44.701Z,3.14
2019-03-08T23:12:11.424Z,3.13
2019-03-08T23:14:38.154Z,3.14
2019-03-08T23:17:04.884Z,3.14
2019-03-08T23:19:31.482Z,3.14
2019-03-08T23:21:58.199Z,3.15
2019-03-08T23:24:24.930Z,3.15
2019-03-08T23:27:11.161Z,3.13
2019-03-08T23:30:05.983Z,3.15
2019-03-08T23:32:35.992Z,3.17
2019-03-08T23:35:02.728Z,3.16
2019-03-08T23:37:29.453Z,3.17
2019-03-08T23:39:56.060Z,3.18
2019-03-08T23:42:22.849Z,3.19
2019-03-08T23:44:49.556Z,3.20
2019-03-08T23:47:16.149Z,3.19
2019-03-08T23:49:42.755Z,3.17
2019-03-08T23:52:09.489Z,3.15
2019-03-08T23:54:36.198Z,3.10
2019-03-08T23:57:02.814Z,3.08
2019-03-08T23:59:29.648Z,3.05
